createdAt,value
2022-08-21T00:04:55.867Z,100463.56
2022-08-21T00:10:01.550Z,100456.34
2022-08-21T00:15:08.646Z,100458.69
2022-08-21T00:20:14.005Z,100467.06
2022-08-21T00:25:19.829Z,100469.97
2022-08-21T00:30:30.764Z,100467.97
2022-08-21T00:35:36.842Z,100476.41
2022-08-21T00:40:42.662Z,100468.44
2022-08-21T00:45:48.036Z,100476.00
2022-08-21T00:50:58.662Z,100468.59
2022-08-21T00:56:02.769Z,100474.81
2022-08-21T01:01:08.810Z,100467.13
2022-08-21T01:06:12.652Z,100469.72
2022-08-21T01:11:17.273Z,100466.22
2022-08-21T01:16:23.956Z,100470.13
2022-08-21T01:21:29.567Z,100464.84
2022-08-21T01:26:35.558Z,100472.19
2022-08-21T01:31:39.680Z,100468.53
2022-08-21T01:36:45.359Z,100463.88
2022-08-21T01:41:49.004Z,100458.69
2022-08-21T01:46:53.359Z,100467.25
2022-08-21T01:51:57.859Z,100467.19
2022-08-21T01:57:02.340Z,100461.41
2022-08-21T02:02:05.516Z,100463.38
2022-08-21T02:07:10.786Z,100467.41
2022-08-21T02:12:14.374Z,100468.19
2022-08-21T02:17:17.975Z,100475.31
2022-08-21T02:22:23.206Z,100476.03
2022-08-21T02:27:28.407Z,100478.22
2022-08-21T02:32:32.505Z,100490.44
2022-08-21T02:37:45.494Z,100489.41
2022-08-21T02:42:49.527Z,100483.06
2022-08-21T02:47:55.398Z,100486.38
2022-08-21T02:53:00.970Z,100493.16
2022-08-21T02:58:05.657Z,100498.84
2022-08-21T03:03:08.525Z,100499.44
2022-08-21T03:08:16.372Z,100507.84
2022-08-21T03:13:20.757Z,100511.72
2022-08-21T03:18:24.520Z,100511.66
2022-08-21T03:23:32.607Z,100528.25
2022-08-21T03:28:36.510Z,100534.91
2022-08-21T03:33:40.093Z,100534.34
2022-08-21T03:38:45.345Z,100545.03
2022-08-21T03:43:49.003Z,100554.19
2022-08-21T03:48:52.596Z,100562.84
2022-08-21T03:53:57.834Z,100574.13
2022-08-21T03:59:01.916Z,100583.66
2022-08-21T04:04:06.455Z,100595.25
2022-08-21T04:09:11.684Z,100600.38
2022-08-21T04:14:14.842Z,100607.69
2022-08-21T04:19:18.423Z,100604.47
2022-08-21T04:24:23.666Z,100617.44
2022-08-21T04:29:26.532Z,100627.78
2022-08-21T04:34:30.105Z,100628.09
2022-08-21T04:39:36.077Z,100631.25
2022-08-21T04:44:39.690Z,100633.69
2022-08-21T04:49:45.546Z,100635.81
2022-08-21T04:54:54.932Z,100637.59
2022-08-21T04:59:58.694Z,100648.56
2022-08-21T05:05:02.638Z,100658.31
2022-08-21T05:10:09.747Z,100665.78
2022-08-21T05:15:14.251Z,100660.47
2022-08-21T05:20:18.573Z,100662.88
2022-08-21T05:25:24.060Z,100670.56
2022-08-21T05:30:27.911Z,100675.22
2022-08-21T05:35:32.318Z,100693.81
2022-08-21T05:40:37.666Z,100688.69
2022-08-21T05:45:42.582Z,100696.06
2022-08-21T05:50:49.071Z,100698.41
2022-08-21T05:55:53.945Z,100699.81
2022-08-21T06:00:57.829Z,100705.72
2022-08-21T06:06:01.631Z,100700.03
2022-08-21T06:11:08.066Z,100703.78
2022-08-21T06:16:15.653Z,100706.44
2022-08-21T06:21:20.127Z,100705.66
2022-08-21T06:26:26.498Z,100717.84
2022-08-21T06:31:30.531Z,100730.22
2022-08-21T06:36:34.110Z,100733.53
2022-08-21T06:41:40.050Z,100730.03
2022-08-21T06:46:43.842Z,100739.69
2022-08-21T06:51:51.151Z,100745.16
2022-08-21T06:56:57.312Z,100749.50
2022-08-21T07:02:01.246Z,100754.38
2022-08-21T07:07:04.958Z,100764.34
2022-08-21T07:12:11.042Z,100767.13
2022-08-21T07:17:14.635Z,100767.56
2022-08-21T07:22:20.103Z,100767.75
2022-08-21T07:27:26.284Z,100773.13
2022-08-21T07:32:29.898Z,100779.28
2022-08-21T07:37:33.489Z,100777.84
2022-08-21T07:42:42.796Z,100776.66
2022-08-21T07:47:46.406Z,100789.06
2022-08-21T07:52:50.259Z,100791.13
2022-08-21T07:57:55.525Z,100798.00
2022-08-21T08:02:59.599Z,100803.06
2022-08-21T08:08:03.673Z,100799.66
2022-08-21T08:13:10.361Z,100794.72
2022-08-21T08:18:14.174Z,100802.28
2022-08-21T08:23:18.245Z,100795.06
2022-08-21T08:28:24.382Z,100792.66
2022-08-21T08:33:28.411Z,100799.06
2022-08-21T08:38:32.013Z,100798.44
2022-08-21T08:43:38.094Z,100795.97
2022-08-21T08:48:51.080Z,100788.81
2022-08-21T08:54:01.783Z,100797.28
2022-08-21T08:59:14.904Z,100792.38
2022-08-21T09:04:25.402Z,100798.44
2022-08-21T09:09:37.946Z,100805.91
2022-08-21T09:15:01.363Z,100808.44
2022-08-21T09:20:16.060Z,100812.69
2022-08-21T09:25:24.290Z,100811.06
2022-08-21T09:30:32.202Z,100817.25
2022-08-21T09:35:35.982Z,100813.56
2022-08-21T09:40:42.494Z,100815.19
2022-08-21T09:45:49.630Z,100820.38
2022-08-21T09:50:55.533Z,100827.38
2022-08-21T09:56:01.276Z,100840.97
2022-08-21T10:01:08.556Z,100834.53
2022-08-21T10:06:23.434Z,100824.75
2022-08-21T10:11:30.504Z,100836.00
2022-08-21T10:16:43.990Z,100841.06
2022-08-21T10:22:00.853Z,100848.00
2022-08-21T10:27:16.015Z,100859.03
2022-08-21T10:32:32.257Z,100872.44
2022-08-21T10:37:58.701Z,100874.03
2022-08-21T10:43:15.510Z,100869.50
2022-08-21T10:48:28.844Z,100880.16
2022-08-21T10:53:47.201Z,100875.63
2022-08-21T10:59:09.670Z,100873.13
2022-08-21T11:04:21.566Z,100892.88
2022-08-21T11:09:27.903Z,100906.28
2022-08-21T11:14:40.931Z,100901.94
2022-08-21T11:20:01.330Z,100898.63
2022-08-21T11:25:12.577Z,100905.59
2022-08-21T11:30:16.779Z,100902.38
2022-08-21T11:35:30.654Z,100916.69
2022-08-21T11:41:01.796Z,100921.44
2022-08-21T11:46:14.779Z,100923.84
2022-08-21T11:51:29.813Z,100920.47
2022-08-21T11:56:39.212Z,100931.59
2022-08-21T12:01:47.752Z,100928.94
2022-08-21T12:06:53.003Z,100938.16
2022-08-21T12:12:04.773Z,100947.19
2022-08-21T12:17:20.376Z,100952.91
2022-08-21T12:22:39.750Z,100952.00
2022-08-21T12:27:49.680Z,100966.38
2022-08-21T12:33:00.011Z,100968.69
2022-08-21T12:38:11.087Z,100978.66
2022-08-21T12:43:20.074Z,100974.41
2022-08-21T12:48:28.208Z,100994.34
2022-08-21T12:53:40.649Z,101004.09
2022-08-21T12:58:47.702Z,101004.97
2022-08-21T13:04:03.958Z,101015.78
2022-08-21T13:09:13.516Z,101010.47
2022-08-21T13:14:23.746Z,101018.84
2022-08-21T13:19:30.610Z,101022.09
2022-08-21T13:24:42.880Z,101040.38
2022-08-21T13:29:52.169Z,101053.69
2022-08-21T13:34:57.393Z,101049.38
2022-08-21T13:40:02.859Z,101059.00
2022-08-21T13:45:15.726Z,101062.59
2022-08-21T13:50:22.785Z,101079.91
2022-08-21T13:55:37.071Z,101088.09
2022-08-21T14:00:47.967Z,101091.53
2022-08-21T14:05:51.654Z,101093.38
2022-08-21T14:10:57.540Z,101101.41
2022-08-21T14:16:03.046Z,101109.22
2022-08-21T14:21:08.614Z,101117.88
2022-08-21T14:26:13.842Z,101130.22
2022-08-21T14:31:20.640Z,101133.56
2022-08-21T14:36:24.631Z,101133.88
2022-08-21T14:41:31.066Z,101137.56
2022-08-21T14:46:35.676Z,101138.97
2022-08-21T14:51:39.407Z,101140.69
2022-08-21T14:57:00.161Z,101147.50
2022-08-21T15:02:04.718Z,101143.41
2022-08-21T15:07:08.302Z,101155.00
2022-08-21T15:12:15.629Z,101164.78
2022-08-21T15:17:19.418Z,101166.59
2022-08-21T15:22:28.068Z,101171.34
2022-08-21T15:27:33.869Z,101173.09
2022-08-21T15:32:37.438Z,101180.72
2022-08-21T15:37:41.010Z,101181.78
2022-08-21T15:42:46.750Z,101177.56
2022-08-21T15:47:53.548Z,101169.69
2022-08-21T15:52:57.260Z,101178.41
2022-08-21T15:58:06.095Z,101193.78
2022-08-21T16:03:12.845Z,101198.81
2022-08-21T16:08:16.960Z,101207.56
2022-08-21T16:13:25.805Z,101209.06
2022-08-21T16:18:29.441Z,101212.88
2022-08-21T16:23:33.064Z,101208.53
2022-08-21T16:28:42.234Z,101219.13
2022-08-21T16:33:51.771Z,101223.22
2022-08-21T16:39:01.619Z,101224.69
2022-08-21T16:44:07.841Z,101242.06
2022-08-21T16:49:13.318Z,101214.69
2022-08-21T16:54:16.937Z,101210.25
2022-08-21T16:59:22.224Z,101212.41
2022-08-21T17:04:25.833Z,101206.50
2022-08-21T17:09:29.389Z,101212.78
2022-08-21T17:14:36.263Z,101229.63
2022-08-21T17:19:40.081Z,101234.50
2022-08-21T17:24:43.728Z,101239.09
2022-08-21T17:29:49.006Z,101246.25
2022-08-21T17:34:52.600Z,101256.38
2022-08-21T17:39:56.252Z,101251.69
2022-08-21T17:45:01.748Z,101265.84
2022-08-21T17:50:05.933Z,101268.78
2022-08-21T17:55:09.991Z,101277.69
2022-08-21T18:00:17.735Z,101286.34
2022-08-21T18:05:21.358Z,101288.44
2022-08-21T18:10:25.909Z,101295.75
2022-08-21T18:15:31.231Z,101310.09
2022-08-21T18:20:34.868Z,101305.94
2022-08-21T18:25:38.773Z,101299.00
2022-08-21T18:30:44.843Z,101300.63
2022-08-21T18:35:48.460Z,101303.59
2022-08-21T18:40:56.106Z,101293.78
2022-08-21T18:46:02.981Z,101288.06
2022-08-21T18:51:07.073Z,101285.41
2022-08-21T18:56:15.912Z,101278.06
2022-08-21T19:01:21.362Z,101278.63
2022-08-21T19:06:28.078Z,101278.00
2022-08-21T19:11:33.453Z,101279.25
2022-08-21T19:16:39.929Z,101276.22
2022-08-21T19:21:50.720Z,101268.91
2022-08-21T19:26:55.754Z,101276.94
2022-08-21T19:32:01.247Z,101280.41
2022-08-21T19:37:07.252Z,101274.25
2022-08-21T19:42:11.559Z,101283.22
2022-08-21T19:47:19.336Z,101284.75
2022-08-21T19:52:24.192Z,101285.31
2022-08-21T19:57:28.233Z,101287.19
2022-08-21T20:02:33.468Z,101281.38
2022-08-21T20:07:37.160Z,101286.72
2022-08-21T20:12:41.219Z,101278.13
2022-08-21T20:17:46.475Z,101272.53
2022-08-21T20:22:50.057Z,101275.22
2022-08-21T20:27:54.092Z,101278.50
2022-08-21T20:32:59.927Z,101273.69
2022-08-21T20:38:03.666Z,101268.88
2022-08-21T20:43:07.696Z,101283.22
2022-08-21T20:48:23.510Z,101286.44
2022-08-21T20:53:42.915Z,101280.59
2022-08-21T20:58:54.742Z,101279.09
2022-08-21T21:04:10.004Z,101284.78
2022-08-21T21:09:31.935Z,101294.78
2022-08-21T21:14:39.483Z,101285.94
2022-08-21T21:19:52.023Z,101289.00
2022-08-21T21:25:03.874Z,101282.16
2022-08-21T21:30:12.127Z,101280.19
2022-08-21T21:35:33.205Z,101292.91
2022-08-21T21:40:49.352Z,101286.50
2022-08-21T21:46:06.139Z,101287.41
2022-08-21T21:51:21.725Z,101283.66
2022-08-21T21:56:34.015Z,101290.22
2022-08-21T22:01:44.413Z,101287.03
2022-08-21T22:06:55.337Z,101294.22
2022-08-21T22:12:11.070Z,101287.84
2022-08-21T22:17:34.662Z,101273.16
2022-08-21T22:22:42.562Z,101280.31
2022-08-21T22:27:53.765Z,101282.66
2022-08-21T22:33:01.131Z,101267.81
2022-08-21T22:38:17.936Z,101267.75
2022-08-21T22:43:24.295Z,101265.44
2022-08-21T22:48:32.001Z,101263.72
2022-08-21T22:53:41.918Z,101249.16
2022-08-21T22:58:56.017Z,101255.91
2022-08-21T23:04:11.441Z,101256.56
2022-08-21T23:09:22.944Z,101244.66
2022-08-21T23:14:28.645Z,101242.81
2022-08-21T23:19:49.446Z,101238.00
2022-08-21T23:25:05.330Z,101237.72
2022-08-21T23:30:14.196Z,101239.41
2022-08-21T23:35:24.586Z,101237.44
2022-08-21T23:40:51.209Z,101236.38
2022-08-21T23:46:32.428Z,101232.16
2022-08-21T23:51:46.189Z,101218.53
